EDW1956 LEBL-LSZH
Flight info
| Callsign | EDW1956 |
|---|---|
| Flight time | 1h 20m |
| Altitude | 34000 |
| Route | DALIN6Q DALIN DCT PIVUS DCT DIBER DCT ADITA DCT MAXIR DCT LUSOL DCT BODRU DCT OKTET DCT IRMAR DCT KINES DCT VANAS DCT MOBLO DCT LAMUR DCT KORED N871 BERSU BERSU2G |
| Aircraft | A343/H-SDE2E3FGHIJ4J5M1RWXYZ/LB1D1 |
Departure
| Time | 2026-05-06 15:06 |
|---|---|
| Airport | Josep Tarradellas Barcelona-El Prat Airport (LEBL) |
Arrival
| Time | 2026-05-06 16:26 |
|---|---|
| Airport | Zürich Airport (LSZH) |
| Time | Latitude | Longitude | Altitude | Speed | Heading |
|---|---|---|---|---|---|
| 2026-05-06 14:25 | 41.29094 | 2.07545 | 23 ft | 0 kts | 250° |
| 2026-05-06 14:47 | 41.29097 | 2.07556 | 23 ft | 3 kts | 249° |
| 2026-05-06 14:47 | 41.29105 | 2.07581 | 28 ft | 3 kts | 246° |
| 2026-05-06 14:47 | 41.29113 | 2.07605 | 28 ft | 3 kts | 244° |
| 2026-05-06 14:47 | 41.29122 | 2.07629 | 27 ft | 3 kts | 242° |
| 2026-05-06 14:48 | 41.29132 | 2.07653 | 26 ft | 3 kts | 240° |
| 2026-05-06 14:48 | 41.29142 | 2.07676 | 27 ft | 3 kts | 238° |
| 2026-05-06 14:48 | 41.29153 | 2.07699 | 27 ft | 3 kts | 238° |
| 2026-05-06 14:48 | 41.29163 | 2.07722 | 28 ft | 3 kts | 242° |
| 2026-05-06 14:49 | 41.29168 | 2.07734 | 28 ft | 0 kts | 245° |
| 2026-05-06 14:53 | 41.29157 | 2.07699 | 26 ft | 1 kts | 246° |
| 2026-05-06 14:53 | 41.29179 | 2.07656 | 23 ft | 12 kts | 316° |
| 2026-05-06 14:54 | 41.29225 | 2.07624 | 24 ft | 5 kts | 337° |
| 2026-05-06 14:54 | 41.29263 | 2.07603 | 24 ft | 8 kts | 337° |
| 2026-05-06 14:54 | 41.29322 | 2.07570 | 20 ft | 11 kts | 337° |
| 2026-05-06 14:54 | 41.29396 | 2.07540 | 20 ft | 10 kts | 8° |
| 2026-05-06 14:55 | 41.29436 | 2.07605 | 23 ft | 9 kts | 63° |
| 2026-05-06 14:55 | 41.29468 | 2.07690 | 23 ft | 11 kts | 63° |
| 2026-05-06 14:55 | 41.29502 | 2.07788 | 21 ft | 12 kts | 66° |
| 2026-05-06 14:55 | 41.29536 | 2.07898 | 23 ft | 13 kts | 67° |
| 2026-05-06 14:56 | 41.29575 | 2.08017 | 21 ft | 15 kts | 64° |
| 2026-05-06 14:56 | 41.29621 | 2.08146 | 21 ft | 16 kts | 67° |
| 2026-05-06 14:56 | 41.29576 | 2.08248 | 19 ft | 15 kts | 151° |
| 2026-05-06 14:56 | 41.29499 | 2.08299 | 21 ft | 14 kts | 156° |
| 2026-05-06 14:57 | 41.29412 | 2.08351 | 25 ft | 13 kts | 156° |
| 2026-05-06 14:57 | 41.29330 | 2.08400 | 26 ft | 12 kts | 155° |
| 2026-05-06 14:57 | 41.29252 | 2.08448 | 29 ft | 12 kts | 155° |
| 2026-05-06 14:57 | 41.29168 | 2.08499 | 26 ft | 15 kts | 155° |
| 2026-05-06 14:58 | 41.29067 | 2.08560 | 24 ft | 16 kts | 155° |
| 2026-05-06 14:58 | 41.28967 | 2.08620 | 25 ft | 16 kts | 156° |
| 2026-05-06 14:58 | 41.28871 | 2.08703 | 21 ft | 16 kts | 116° |
| 2026-05-06 14:58 | 41.28899 | 2.08840 | 22 ft | 16 kts | 67° |
| 2026-05-06 14:59 | 41.28948 | 2.08981 | 23 ft | 17 kts | 65° |
| 2026-05-06 14:59 | 41.29000 | 2.09130 | 23 ft | 18 kts | 65° |
| 2026-05-06 14:59 | 41.29054 | 2.09290 | 22 ft | 19 kts | 66° |
| 2026-05-06 14:59 | 41.29109 | 2.09455 | 22 ft | 20 kts | 66° |
| 2026-05-06 15:00 | 41.29169 | 2.09630 | 23 ft | 21 kts | 64° |
| 2026-05-06 15:00 | 41.29233 | 2.09811 | 22 ft | 22 kts | 65° |
| 2026-05-06 15:00 | 41.29305 | 2.09980 | 22 ft | 18 kts | 59° |
| 2026-05-06 15:00 | 41.29358 | 2.10135 | 22 ft | 19 kts | 68° |
| 2026-05-06 15:01 | 41.29351 | 2.10251 | 18 ft | 7 kts | 129° |
| 2026-05-06 15:01 | 41.29329 | 2.10268 | 18 ft | 0 kts | 152° |
| 2026-05-06 15:03 | 41.29320 | 2.10275 | 18 ft | 8 kts | 152° |
| 2026-05-06 15:04 | 41.29242 | 2.10302 | 20 ft | 11 kts | 192° |
| 2026-05-06 15:04 | 41.29191 | 2.10241 | 21 ft | 9 kts | 245° |
| 2026-05-06 15:04 | 41.29188 | 2.10233 | 21 ft | 0 kts | 245° |
| 2026-05-06 15:04 | 41.29164 | 2.10162 | 24 ft | 25 kts | 245° |
| 2026-05-06 15:05 | 41.29041 | 2.09806 | 26 ft | 66 kts | 245° |
| 2026-05-06 15:05 | 41.28773 | 2.09023 | 26 ft | 121 kts | 245° |
| 2026-05-06 15:05 | 41.28357 | 2.07828 | 55 ft | 161 kts | 242° |
| 2026-05-06 15:05 | 41.27915 | 2.06390 | 517 ft | 173 kts | 245° |
| 2026-05-06 15:06 | 41.27403 | 2.04898 | 1122 ft | 181 kts | 242° |
| 2026-05-06 15:06 | 41.26802 | 2.03396 | 1765 ft | 189 kts | 239° |
| 2026-05-06 15:06 | 41.25724 | 2.02331 | 2283 ft | 208 kts | 198° |
| 2026-05-06 15:06 | 41.24240 | 2.02494 | 2731 ft | 232 kts | 162° |
| 2026-05-06 15:07 | 41.22665 | 2.03210 | 3194 ft | 243 kts | 168° |
| 2026-05-06 15:07 | 41.20983 | 2.03469 | 3646 ft | 244 kts | 182° |
| 2026-05-06 15:07 | 41.19291 | 2.03294 | 4107 ft | 244 kts | 191° |
| 2026-05-06 15:07 | 41.17618 | 2.02868 | 4563 ft | 246 kts | 195° |
| 2026-05-06 15:08 | 41.15954 | 2.02312 | 5012 ft | 247 kts | 198° |
| 2026-05-06 15:08 | 41.14299 | 2.01671 | 5453 ft | 248 kts | 200° |
| 2026-05-06 15:08 | 41.12672 | 2.00993 | 5936 ft | 249 kts | 200° |
| 2026-05-06 15:08 | 41.10990 | 2.00382 | 6382 ft | 252 kts | 193° |
| 2026-05-06 15:09 | 41.09228 | 2.00262 | 6816 ft | 256 kts | 178° |
| 2026-05-06 15:09 | 41.07468 | 2.00816 | 7220 ft | 272 kts | 160° |
| 2026-05-06 15:09 | 41.05812 | 2.02159 | 7922 ft | 286 kts | 140° |
| 2026-05-06 15:09 | 41.04509 | 2.04162 | 8892 ft | 290 kts | 125° |
| 2026-05-06 15:10 | 41.03428 | 2.06445 | 9857 ft | 294 kts | 122° |
| 2026-05-06 15:10 | 41.02356 | 2.08800 | 10483 ft | 307 kts | 122° |
| 2026-05-06 15:10 | 41.01224 | 2.11263 | 10840 ft | 327 kts | 122° |
| 2026-05-06 15:10 | 41.00003 | 2.13897 | 11205 ft | 346 kts | 123° |
| 2026-05-06 15:11 | 40.98726 | 2.16691 | 11642 ft | 360 kts | 120° |
| 2026-05-06 15:11 | 40.97650 | 2.19722 | 12302 ft | 369 kts | 110° |
| 2026-05-06 15:11 | 40.96991 | 2.23027 | 13026 ft | 375 kts | 99° |
| 2026-05-06 15:11 | 40.96826 | 2.26490 | 13762 ft | 381 kts | 87° |
| 2026-05-06 15:12 | 40.97179 | 2.29978 | 14385 ft | 387 kts | 76° |
| 2026-05-06 15:12 | 40.98065 | 2.33383 | 14935 ft | 395 kts | 64° |
| 2026-05-06 15:12 | 40.99453 | 2.36484 | 15509 ft | 401 kts | 52° |
| 2026-05-06 15:12 | 41.01334 | 2.39225 | 16112 ft | 405 kts | 39° |
| 2026-05-06 15:13 | 41.03563 | 2.41543 | 16697 ft | 411 kts | 34° |
| 2026-05-06 15:13 | 41.05757 | 2.44043 | 17292 ft | 420 kts | 41° |
| 2026-05-06 15:13 | 41.07860 | 2.46773 | 17897 ft | 427 kts | 43° |
| 2026-05-06 15:13 | 41.09975 | 2.49588 | 18451 ft | 434 kts | 43° |
| 2026-05-06 15:14 | 41.12109 | 2.52443 | 19053 ft | 438 kts | 43° |
| 2026-05-06 15:14 | 41.14259 | 2.55325 | 19652 ft | 442 kts | 43° |
| 2026-05-06 15:14 | 41.16403 | 2.58203 | 20223 ft | 446 kts | 43° |
| 2026-05-06 15:14 | 41.18596 | 2.61149 | 20773 ft | 451 kts | 43° |
| 2026-05-06 15:15 | 41.20808 | 2.64126 | 21306 ft | 455 kts | 43° |
| 2026-05-06 15:15 | 41.23051 | 2.67146 | 21864 ft | 460 kts | 43° |
| 2026-05-06 15:15 | 41.23810 | 2.68169 | 22013 ft | 461 kts | 43° |
| 2026-05-06 15:16 | 41.29419 | 2.75739 | 23255 ft | 473 kts | 43° |
| 2026-05-06 15:16 | 41.31706 | 2.78832 | 23735 ft | 477 kts | 43° |
| 2026-05-06 15:16 | 41.34043 | 2.81996 | 24112 ft | 482 kts | 43° |
| 2026-05-06 15:16 | 41.36398 | 2.85187 | 24528 ft | 485 kts | 43° |
| 2026-05-06 15:17 | 41.38772 | 2.88408 | 24955 ft | 488 kts | 43° |
| 2026-05-06 15:17 | 41.41161 | 2.91653 | 25371 ft | 492 kts | 43° |
| 2026-05-06 15:17 | 41.43564 | 2.94920 | 25777 ft | 495 kts | 43° |
| 2026-05-06 15:17 | 41.45981 | 2.98211 | 26158 ft | 498 kts | 43° |
| 2026-05-06 15:18 | 41.48412 | 3.01523 | 26558 ft | 501 kts | 43° |
| 2026-05-06 15:18 | 41.50824 | 3.04814 | 26933 ft | 504 kts | 44° |
| 2026-05-06 15:18 | 41.53287 | 3.08179 | 27290 ft | 508 kts | 44° |
| 2026-05-06 15:18 | 41.55758 | 3.11558 | 27682 ft | 511 kts | 44° |
| 2026-05-06 15:19 | 41.58247 | 3.14965 | 28055 ft | 513 kts | 44° |
| 2026-05-06 15:19 | 41.60747 | 3.18392 | 28403 ft | 516 kts | 44° |
| 2026-05-06 15:19 | 41.63258 | 3.21838 | 28757 ft | 519 kts | 44° |
| 2026-05-06 15:19 | 41.65785 | 3.25310 | 29109 ft | 522 kts | 44° |
| 2026-05-06 15:20 | 41.68321 | 3.28799 | 29441 ft | 525 kts | 44° |
| 2026-05-06 15:20 | 41.70867 | 3.32322 | 29763 ft | 528 kts | 45° |
| 2026-05-06 15:20 | 41.73151 | 3.36105 | 30078 ft | 532 kts | 56° |
| 2026-05-06 15:20 | 41.74968 | 3.40431 | 30383 ft | 534 kts | 64° |
| 2026-05-06 15:21 | 41.76574 | 3.44934 | 30656 ft | 536 kts | 66° |
| 2026-05-06 15:21 | 41.78099 | 3.49508 | 30922 ft | 538 kts | 67° |
| 2026-05-06 15:21 | 41.79587 | 3.54103 | 31285 ft | 538 kts | 67° |
| 2026-05-06 15:21 | 41.81067 | 3.58701 | 31691 ft | 537 kts | 67° |
| 2026-05-06 15:22 | 41.82550 | 3.63287 | 32063 ft | 536 kts | 67° |
| 2026-05-06 15:22 | 41.84021 | 3.67806 | 32427 ft | 535 kts | 67° |
| 2026-05-06 15:22 | 41.85516 | 3.72374 | 32792 ft | 535 kts | 67° |
| 2026-05-06 15:22 | 41.87014 | 3.76940 | 33141 ft | 534 kts | 67° |
| 2026-05-06 15:23 | 41.88511 | 3.81498 | 33461 ft | 534 kts | 67° |
| 2026-05-06 15:23 | 41.90009 | 3.86062 | 33749 ft | 535 kts | 67° |
| 2026-05-06 15:23 | 41.91508 | 3.90636 | 33932 ft | 536 kts | 67° |
| 2026-05-06 15:24 | 41.94483 | 3.99732 | 33955 ft | 528 kts | 68° |
| 2026-05-06 15:24 | 41.97400 | 4.08700 | 33951 ft | 527 kts | 68° |
| 2026-05-06 15:25 | 42.00326 | 4.17732 | 33953 ft | 527 kts | 68° |
| 2026-05-06 15:25 | 42.03249 | 4.26779 | 33951 ft | 528 kts | 68° |
| 2026-05-06 15:26 | 42.06183 | 4.35846 | 33944 ft | 529 kts | 66° |
| 2026-05-06 15:26 | 42.10290 | 4.44010 | 33951 ft | 528 kts | 44° |
| 2026-05-06 15:27 | 42.15566 | 4.50783 | 33936 ft | 528 kts | 40° |
| 2026-05-06 15:27 | 42.21066 | 4.57350 | 33934 ft | 528 kts | 39° |
| 2026-05-06 15:28 | 42.26580 | 4.63917 | 33945 ft | 529 kts | 40° |
| 2026-05-06 15:28 | 42.32087 | 4.70548 | 33961 ft | 530 kts | 40° |
| 2026-05-06 15:29 | 42.37536 | 4.77158 | 33938 ft | 530 kts | 40° |
| 2026-05-06 15:29 | 42.43010 | 4.83822 | 33942 ft | 530 kts | 40° |
| 2026-05-06 15:30 | 42.48491 | 4.90508 | 33939 ft | 530 kts | 40° |
| 2026-05-06 15:30 | 42.53965 | 4.97200 | 33920 ft | 530 kts | 41° |
| 2026-05-06 15:31 | 42.59406 | 5.03868 | 33936 ft | 531 kts | 41° |
| 2026-05-06 15:31 | 42.64885 | 5.10600 | 33936 ft | 531 kts | 41° |
| 2026-05-06 15:32 | 42.73099 | 5.20723 | 33934 ft | 531 kts | 41° |
| 2026-05-06 15:32 | 42.78528 | 5.27435 | 33933 ft | 531 kts | 41° |
| 2026-05-06 15:33 | 42.83994 | 5.34208 | 33899 ft | 531 kts | 41° |
| 2026-05-06 15:33 | 42.89465 | 5.41005 | 33949 ft | 532 kts | 41° |
| 2026-05-06 15:34 | 42.94933 | 5.47815 | 33910 ft | 532 kts | 41° |
| 2026-05-06 15:34 | 43.00355 | 5.54586 | 33924 ft | 532 kts | 41° |
| 2026-05-06 15:35 | 43.05811 | 5.61416 | 33918 ft | 532 kts | 41° |
| 2026-05-06 15:35 | 43.11261 | 5.68255 | 33916 ft | 531 kts | 41° |
| 2026-05-06 15:36 | 43.16704 | 5.75102 | 33916 ft | 532 kts | 42° |
| 2026-05-06 15:36 | 43.22144 | 5.81964 | 33908 ft | 532 kts | 42° |
| 2026-05-06 15:37 | 43.27551 | 5.88799 | 33902 ft | 532 kts | 41° |
| 2026-05-06 15:37 | 43.32996 | 5.95702 | 33899 ft | 532 kts | 42° |
| 2026-05-06 15:38 | 43.38888 | 6.01738 | 33880 ft | 527 kts | 24° |
| 2026-05-06 15:38 | 43.42256 | 6.03628 | 33881 ft | 520 kts | 12° |
| 2026-05-06 15:38 | 43.45768 | 6.04615 | 33883 ft | 512 kts | 1° |
| 2026-05-06 15:39 | 43.52794 | 6.05543 | 33875 ft | 510 kts | 358° |
| 2026-05-06 15:39 | 43.59873 | 6.06184 | 33882 ft | 510 kts | 358° |
| 2026-05-06 15:40 | 43.66953 | 6.06830 | 33882 ft | 510 kts | 358° |
| 2026-05-06 15:40 | 43.74024 | 6.07599 | 33877 ft | 512 kts | 3° |
| 2026-05-06 15:41 | 43.80864 | 6.10431 | 33869 ft | 523 kts | 20° |
| 2026-05-06 15:41 | 43.87485 | 6.14727 | 33906 ft | 527 kts | 23° |
| 2026-05-06 15:42 | 43.94048 | 6.19269 | 33888 ft | 527 kts | 24° |
| 2026-05-06 15:42 | 44.00614 | 6.23824 | 33893 ft | 527 kts | 24° |
| 2026-05-06 15:43 | 44.07136 | 6.28316 | 33918 ft | 526 kts | 24° |
| 2026-05-06 15:43 | 44.13688 | 6.32823 | 33896 ft | 525 kts | 24° |
| 2026-05-06 15:44 | 44.20233 | 6.37332 | 33904 ft | 525 kts | 24° |
| 2026-05-06 15:44 | 44.26774 | 6.41841 | 33891 ft | 524 kts | 24° |
| 2026-05-06 15:45 | 44.33258 | 6.46338 | 33904 ft | 523 kts | 24° |
| 2026-05-06 15:45 | 44.39792 | 6.50876 | 33910 ft | 527 kts | 24° |
| 2026-05-06 15:46 | 44.46371 | 6.55451 | 33900 ft | 526 kts | 24° |
| 2026-05-06 15:46 | 44.52915 | 6.60013 | 33910 ft | 524 kts | 24° |
| 2026-05-06 15:47 | 44.59391 | 6.64545 | 33913 ft | 524 kts | 24° |
| 2026-05-06 15:47 | 44.65913 | 6.69120 | 33892 ft | 524 kts | 24° |
| 2026-05-06 15:48 | 44.72447 | 6.73711 | 33883 ft | 524 kts | 24° |
| 2026-05-06 15:48 | 44.79135 | 6.77662 | 33877 ft | 518 kts | 11° |
| 2026-05-06 15:49 | 44.82659 | 6.78523 | 33875 ft | 509 kts | 359° |
| 2026-05-06 15:49 | 44.86125 | 6.78634 | 33874 ft | 504 kts | 354° |
| 2026-05-06 15:49 | 44.93114 | 6.78313 | 33871 ft | 502 kts | 352° |
| 2026-05-06 15:50 | 45.00082 | 6.77783 | 33891 ft | 502 kts | 352° |
| 2026-05-06 15:50 | 45.07060 | 6.77268 | 33885 ft | 502 kts | 352° |
| 2026-05-06 15:51 | 45.13993 | 6.76797 | 33910 ft | 502 kts | 352° |
| 2026-05-06 15:51 | 45.20973 | 6.76337 | 33922 ft | 502 kts | 353° |
| 2026-05-06 15:52 | 45.27961 | 6.75873 | 33922 ft | 503 kts | 353° |
| 2026-05-06 15:52 | 45.34960 | 6.75410 | 33804 ft | 504 kts | 353° |
| 2026-05-06 15:53 | 45.38415 | 6.75183 | 33504 ft | 503 kts | 353° |
| 2026-05-06 15:53 | 45.41917 | 6.74949 | 33234 ft | 505 kts | 353° |
| 2026-05-06 15:53 | 45.45442 | 6.74708 | 32988 ft | 509 kts | 352° |
| 2026-05-06 15:53 | 45.48997 | 6.74464 | 32935 ft | 513 kts | 353° |
| 2026-05-06 15:54 | 45.56101 | 6.73979 | 32936 ft | 509 kts | 353° |
| 2026-05-06 15:54 | 45.63162 | 6.73495 | 32936 ft | 508 kts | 353° |
| 2026-05-06 15:55 | 45.70178 | 6.73015 | 32944 ft | 508 kts | 353° |
| 2026-05-06 15:55 | 45.77252 | 6.72591 | 32933 ft | 511 kts | 357° |
| 2026-05-06 15:56 | 45.80797 | 6.73081 | 32942 ft | 515 kts | 8° |
| 2026-05-06 15:56 | 45.84241 | 6.74519 | 32942 ft | 517 kts | 19° |
| 2026-05-06 15:56 | 45.90888 | 6.78560 | 32936 ft | 519 kts | 23° |
| 2026-05-06 15:57 | 45.97397 | 6.82884 | 32929 ft | 519 kts | 24° |
| 2026-05-06 15:57 | 46.03953 | 6.87253 | 32924 ft | 519 kts | 24° |
| 2026-05-06 15:58 | 46.10547 | 6.91611 | 32470 ft | 525 kts | 23° |
| 2026-05-06 15:58 | 46.13876 | 6.93805 | 31933 ft | 526 kts | 23° |
| 2026-05-06 15:58 | 46.17197 | 6.95992 | 31415 ft | 527 kts | 23° |
| 2026-05-06 15:59 | 46.20540 | 6.98202 | 30904 ft | 527 kts | 24° |
| 2026-05-06 15:59 | 46.23858 | 7.00397 | 30385 ft | 524 kts | 24° |
| 2026-05-06 15:59 | 46.27111 | 7.02551 | 29878 ft | 519 kts | 24° |
| 2026-05-06 15:59 | 46.30379 | 7.04718 | 29273 ft | 514 kts | 24° |
| 2026-05-06 16:00 | 46.33614 | 7.06865 | 28677 ft | 510 kts | 24° |
| 2026-05-06 16:00 | 46.36823 | 7.08997 | 28102 ft | 505 kts | 24° |
| 2026-05-06 16:00 | 46.40001 | 7.11112 | 27532 ft | 500 kts | 24° |
| 2026-05-06 16:00 | 46.43147 | 7.13209 | 26965 ft | 495 kts | 24° |
| 2026-05-06 16:01 | 46.46256 | 7.15283 | 26422 ft | 490 kts | 25° |
| 2026-05-06 16:01 | 46.49334 | 7.17340 | 25889 ft | 484 kts | 25° |
| 2026-05-06 16:01 | 46.52341 | 7.19350 | 25370 ft | 479 kts | 25° |
| 2026-05-06 16:01 | 46.55350 | 7.21365 | 24853 ft | 474 kts | 25° |
| 2026-05-06 16:02 | 46.58331 | 7.23365 | 24348 ft | 469 kts | 25° |
| 2026-05-06 16:02 | 46.61277 | 7.25343 | 23852 ft | 464 kts | 25° |
| 2026-05-06 16:02 | 46.64193 | 7.27301 | 23328 ft | 459 kts | 26° |
| 2026-05-06 16:02 | 46.67085 | 7.29242 | 22737 ft | 455 kts | 25° |
| 2026-05-06 16:03 | 46.69935 | 7.31165 | 22161 ft | 450 kts | 25° |
| 2026-05-06 16:03 | 46.72762 | 7.33075 | 21588 ft | 445 kts | 26° |
| 2026-05-06 16:03 | 46.75521 | 7.34942 | 21038 ft | 441 kts | 25° |
| 2026-05-06 16:03 | 46.78324 | 7.36841 | 20491 ft | 436 kts | 25° |
| 2026-05-06 16:04 | 46.81029 | 7.38675 | 19963 ft | 432 kts | 25° |
| 2026-05-06 16:04 | 46.83672 | 7.40689 | 19440 ft | 428 kts | 33° |
| 2026-05-06 16:04 | 46.85923 | 7.43391 | 18923 ft | 409 kts | 46° |
| 2026-05-06 16:04 | 46.87801 | 7.46346 | 18420 ft | 387 kts | 50° |
| 2026-05-06 16:05 | 46.89487 | 7.49286 | 17878 ft | 370 kts | 52° |
| 2026-05-06 16:05 | 46.91072 | 7.52211 | 17334 ft | 365 kts | 53° |
| 2026-05-06 16:05 | 46.92622 | 7.55136 | 16778 ft | 363 kts | 53° |
| 2026-05-06 16:05 | 46.94162 | 7.58052 | 16174 ft | 360 kts | 52° |
| 2026-05-06 16:06 | 46.95657 | 7.60866 | 15588 ft | 349 kts | 52° |
| 2026-05-06 16:06 | 46.97134 | 7.63628 | 14976 ft | 340 kts | 52° |
| 2026-05-06 16:06 | 46.98583 | 7.66323 | 14378 ft | 333 kts | 52° |
| 2026-05-06 16:06 | 47.00007 | 7.68963 | 13803 ft | 327 kts | 51° |
| 2026-05-06 16:07 | 47.01410 | 7.71552 | 13163 ft | 322 kts | 51° |
| 2026-05-06 16:07 | 47.02793 | 7.74111 | 12537 ft | 318 kts | 51° |
| 2026-05-06 16:07 | 47.04153 | 7.76634 | 11892 ft | 314 kts | 51° |
| 2026-05-06 16:07 | 47.05500 | 7.79132 | 11312 ft | 310 kts | 51° |
| 2026-05-06 16:08 | 47.06828 | 7.81596 | 10700 ft | 307 kts | 51° |
| 2026-05-06 16:08 | 47.08143 | 7.84042 | 10115 ft | 303 kts | 51° |
| 2026-05-06 16:08 | 47.09425 | 7.86428 | 9524 ft | 300 kts | 51° |
| 2026-05-06 16:08 | 47.10712 | 7.88824 | 8877 ft | 297 kts | 51° |
| 2026-05-06 16:09 | 47.11985 | 7.91196 | 8262 ft | 294 kts | 51° |
| 2026-05-06 16:09 | 47.13215 | 7.93574 | 7628 ft | 291 kts | 55° |
| 2026-05-06 16:09 | 47.14204 | 7.96135 | 7117 ft | 285 kts | 64° |
| 2026-05-06 16:09 | 47.15045 | 7.98719 | 6909 ft | 277 kts | 65° |
| 2026-05-06 16:10 | 47.15648 | 8.00610 | 6899 ft | 278 kts | 65° |
| 2026-05-06 16:11 | 47.15747 | 8.00920 | 6902 ft | 278 kts | 65° |
| 2026-05-06 16:11 | 47.16565 | 8.03490 | 6900 ft | 279 kts | 65° |
| 2026-05-06 16:11 | 47.17388 | 8.06074 | 6899 ft | 279 kts | 65° |
| 2026-05-06 16:12 | 47.18205 | 8.08638 | 6895 ft | 276 kts | 65° |
| 2026-05-06 16:12 | 47.19019 | 8.11197 | 6894 ft | 276 kts | 65° |
| 2026-05-06 16:12 | 47.19830 | 8.13750 | 6896 ft | 276 kts | 65° |
| 2026-05-06 16:12 | 47.20643 | 8.16314 | 6893 ft | 277 kts | 64° |
| 2026-05-06 16:13 | 47.21543 | 8.18813 | 6894 ft | 276 kts | 56° |
| 2026-05-06 16:13 | 47.22775 | 8.20968 | 6894 ft | 274 kts | 40° |
| 2026-05-06 16:13 | 47.24306 | 8.22526 | 6892 ft | 271 kts | 23° |
| 2026-05-06 16:13 | 47.26064 | 8.23430 | 6893 ft | 266 kts | 7° |
| 2026-05-06 16:14 | 47.27893 | 8.23622 | 6892 ft | 261 kts | 352° |
| 2026-05-06 16:14 | 47.29647 | 8.23134 | 6893 ft | 256 kts | 336° |
| 2026-05-06 16:14 | 47.31260 | 8.22015 | 6895 ft | 251 kts | 322° |
| 2026-05-06 16:14 | 47.32591 | 8.20401 | 6895 ft | 246 kts | 308° |
| 2026-05-06 16:15 | 47.33647 | 8.18467 | 6892 ft | 245 kts | 303° |
| 2026-05-06 16:15 | 47.34741 | 8.16545 | 6691 ft | 247 kts | 310° |
| 2026-05-06 16:15 | 47.36112 | 8.14943 | 6270 ft | 257 kts | 324° |
| 2026-05-06 16:15 | 47.37695 | 8.13662 | 5953 ft | 259 kts | 328° |
| 2026-05-06 16:16 | 47.39278 | 8.12491 | 5879 ft | 248 kts | 329° |
| 2026-05-06 16:16 | 47.40788 | 8.11380 | 5882 ft | 238 kts | 328° |
| 2026-05-06 16:16 | 47.42270 | 8.10278 | 5891 ft | 238 kts | 328° |
| 2026-05-06 16:16 | 47.43727 | 8.09187 | 5886 ft | 238 kts | 328° |
| 2026-05-06 16:17 | 47.45205 | 8.08080 | 5890 ft | 238 kts | 328° |
| 2026-05-06 16:17 | 47.46686 | 8.06986 | 5892 ft | 239 kts | 330° |
| 2026-05-06 16:17 | 47.48284 | 8.06251 | 5891 ft | 245 kts | 348° |
| 2026-05-06 16:17 | 47.49996 | 8.06422 | 5890 ft | 251 kts | 13° |
| 2026-05-06 16:18 | 47.51531 | 8.07606 | 5889 ft | 255 kts | 38° |
| 2026-05-06 16:18 | 47.52630 | 8.09650 | 5878 ft | 256 kts | 64° |
| 2026-05-06 16:18 | 47.53196 | 8.12148 | 5887 ft | 257 kts | 74° |
| 2026-05-06 16:18 | 47.53808 | 8.14651 | 5786 ft | 261 kts | 68° |
| 2026-05-06 16:19 | 47.54520 | 8.17141 | 5461 ft | 260 kts | 66° |
| 2026-05-06 16:19 | 47.55240 | 8.19563 | 4994 ft | 255 kts | 65° |
| 2026-05-06 16:19 | 47.55951 | 8.21939 | 4416 ft | 250 kts | 65° |
| 2026-05-06 16:19 | 47.56653 | 8.24278 | 3828 ft | 248 kts | 65° |
| 2026-05-06 16:20 | 47.57351 | 8.26595 | 3360 ft | 242 kts | 65° |
| 2026-05-06 16:20 | 47.58024 | 8.28835 | 3014 ft | 233 kts | 64° |
| 2026-05-06 16:20 | 47.58658 | 8.30943 | 2975 ft | 221 kts | 64° |
| 2026-05-06 16:20 | 47.59265 | 8.32965 | 2964 ft | 209 kts | 63° |
| 2026-05-06 16:21 | 47.59820 | 8.34893 | 2941 ft | 199 kts | 70° |
| 2026-05-06 16:21 | 47.59926 | 8.36872 | 2899 ft | 191 kts | 105° |
| 2026-05-06 16:21 | 47.59270 | 8.38512 | 2918 ft | 184 kts | 137° |
| 2026-05-06 16:21 | 47.58343 | 8.39827 | 2956 ft | 179 kts | 143° |
| 2026-05-06 16:22 | 47.57465 | 8.40985 | 2969 ft | 166 kts | 142° |
| 2026-05-06 16:22 | 47.56669 | 8.42085 | 2949 ft | 147 kts | 142° |
| 2026-05-06 16:22 | 47.55935 | 8.43096 | 2939 ft | 143 kts | 143° |
| 2026-05-06 16:22 | 47.55200 | 8.44092 | 2942 ft | 144 kts | 143° |
| 2026-05-06 16:23 | 47.54462 | 8.45090 | 2947 ft | 144 kts | 143° |
| 2026-05-06 16:23 | 47.53726 | 8.46088 | 2940 ft | 143 kts | 143° |
| 2026-05-06 16:23 | 47.52990 | 8.47093 | 2816 ft | 145 kts | 143° |
| 2026-05-06 16:23 | 47.52249 | 8.48105 | 2573 ft | 144 kts | 142° |
| 2026-05-06 16:24 | 47.51532 | 8.49083 | 2385 ft | 142 kts | 141° |
| 2026-05-06 16:24 | 47.50811 | 8.50068 | 2153 ft | 138 kts | 142° |
| 2026-05-06 16:24 | 47.50101 | 8.51034 | 1956 ft | 137 kts | 141° |
| 2026-05-06 16:24 | 47.49397 | 8.51994 | 1773 ft | 139 kts | 140° |
| 2026-05-06 16:25 | 47.48699 | 8.52945 | 1611 ft | 138 kts | 139° |
| 2026-05-06 16:25 | 47.48000 | 8.53899 | 1431 ft | 135 kts | 140° |
| 2026-05-06 16:25 | 47.47403 | 8.54706 | 1403 ft | 95 kts | 137° |
| 2026-05-06 16:25 | 47.47343 | 8.54790 | 1405 ft | 88 kts | 137° |
| 2026-05-06 16:26 | 47.47311 | 8.54834 | 1405 ft | 79 kts | 137° |
| 2026-05-06 16:26 | 47.47080 | 8.55148 | 1403 ft | 36 kts | 137° |
| 2026-05-06 16:26 | 47.47043 | 8.55199 | 1402 ft | 18 kts | 137° |
| 2026-05-06 16:26 | 47.46974 | 8.55294 | 1403 ft | 29 kts | 136° |
| 2026-05-06 16:27 | 47.46815 | 8.55510 | 1408 ft | 31 kts | 138° |
| 2026-05-06 16:27 | 47.46647 | 8.55657 | 1403 ft | 17 kts | 160° |
| 2026-05-06 16:27 | 47.46548 | 8.55695 | 1405 ft | 14 kts | 167° |
| 2026-05-06 16:27 | 47.46459 | 8.55724 | 1409 ft | 12 kts | 168° |
| 2026-05-06 16:28 | 47.46449 | 8.55727 | 1409 ft | 0 kts | 167° |
| 2026-05-06 16:30 | 47.46421 | 8.55737 | 1405 ft | 7 kts | 165° |
| 2026-05-06 16:30 | 47.46391 | 8.55756 | 1410 ft | 7 kts | 152° |
| 2026-05-06 16:30 | 47.46345 | 8.55809 | 1413 ft | 6 kts | 139° |
| 2026-05-06 16:30 | 47.46315 | 8.55847 | 1413 ft | 6 kts | 139° |
| 2026-05-06 16:31 | 47.46287 | 8.55883 | 1415 ft | 5 kts | 139° |
| 2026-05-06 16:31 | 47.46261 | 8.55917 | 1416 ft | 5 kts | 137° |
| 2026-05-06 16:31 | 47.46237 | 8.55950 | 1417 ft | 4 kts | 137° |
| 2026-05-06 16:31 | 47.46207 | 8.55987 | 1416 ft | 11 kts | 148° |
| 2026-05-06 16:32 | 47.46135 | 8.56001 | 1411 ft | 10 kts | 189° |
| 2026-05-06 16:32 | 47.46069 | 8.55986 | 1414 ft | 10 kts | 187° |
| 2026-05-06 16:32 | 47.45992 | 8.55971 | 1416 ft | 12 kts | 188° |
| 2026-05-06 16:32 | 47.45909 | 8.55943 | 1417 ft | 11 kts | 200° |
| 2026-05-06 16:33 | 47.45844 | 8.55905 | 1418 ft | 10 kts | 201° |
| 2026-05-06 16:33 | 47.45780 | 8.55876 | 1418 ft | 9 kts | 186° |
| 2026-05-06 16:33 | 47.45689 | 8.55864 | 1417 ft | 15 kts | 185° |
| 2026-05-06 16:34 | 47.45655 | 8.55620 | 1408 ft | 15 kts | 275° |
| 2026-05-06 16:34 | 47.45669 | 8.55454 | 1405 ft | 17 kts | 276° |
| 2026-05-06 16:34 | 47.45673 | 8.55407 | 1409 ft | 4 kts | 276° |
| 2026-05-06 16:34 | 47.45677 | 8.55347 | 1411 ft | 6 kts | 270° |
| 2026-05-06 16:35 | 47.45661 | 8.55334 | 1411 ft | 4 kts | 196° |
| 2026-05-06 16:35 | 47.45622 | 8.55341 | 1407 ft | 7 kts | 167° |
| 2026-05-06 16:35 | 47.45580 | 8.55369 | 1412 ft | 7 kts | 154° |
| 2026-05-06 16:35 | 47.45539 | 8.55398 | 1413 ft | 6 kts | 154° |
| 2026-05-06 16:36 | 47.45501 | 8.55424 | 1414 ft | 6 kts | 156° |
| 2026-05-06 16:36 | 47.45464 | 8.55448 | 1414 ft | 6 kts | 156° |
| 2026-05-06 16:36 | 47.45426 | 8.55474 | 1416 ft | 6 kts | 155° |
| 2026-05-06 16:36 | 47.45389 | 8.55499 | 1418 ft | 6 kts | 155° |
| 2026-05-06 16:37 | 47.45354 | 8.55523 | 1419 ft | 6 kts | 155° |
| 2026-05-06 16:37 | 47.45312 | 8.55552 | 1418 ft | 8 kts | 155° |
| 2026-05-06 16:37 | 47.45277 | 8.55603 | 1419 ft | 7 kts | 110° |
| 2026-05-06 16:37 | 47.45268 | 8.55676 | 1412 ft | 5 kts | 98° |
| 2026-05-06 16:38 | 47.45257 | 8.55718 | 1419 ft | 2 kts | 142° |
| 2026-05-06 16:38 | 47.45240 | 8.55722 | 1414 ft | 2 kts | 179° |
| 2026-05-06 16:38 | 47.45218 | 8.55718 | 1419 ft | 4 kts | 186° |
| 2026-05-06 16:38 | 47.45189 | 8.55714 | 1417 ft | 3 kts | 186° |
| 2026-05-06 16:39 | 47.45186 | 8.55713 | 1416 ft | 0 kts | 186° |